Time;durP1;ratioP1;P1;durP2;ratioP2;P2;SDS_P1;SDS_P2;PMS_P1;PMS_P2;Temp;Humidity;BMP_temperature;BMP_pressure;BME280_temperature;BME280_humidity;BME280_pressure;Samples;Min_cycle;Max_cycle;Signal;HPM_P1;HPM_P2
2023/05/29 00:00:07;;;;;;;15.15;3.17;;;15.90;80.60;;;;;;5076425;28;20020;-78
2023/05/29 00:02:34;;;;;;;14.68;2.35;;;16.10;80.50;;;;;;5076239;28;20020;-78
2023/05/29 00:05:02;;;;;;;14.52;2.45;;;16.10;80.00;;;;;;5076159;28;20028;-78
2023/05/29 00:07:30;;;;;;;17.58;2.88;;;16.00;80.30;;;;;;5060009;28;20039;-78
2023/05/29 00:09:55;;;;;;;12.15;2.45;;;16.10;80.00;;;;;;5059759;28;20090;-78
2023/05/29 00:12:22;;;;;;;19.13;2.97;;;16.10;79.80;;;;;;5094276;28;20028;-78
2023/05/29 00:14:49;;;;;;;16.90;3.13;;;16.10;80.00;;;;;;5056278;28;20095;-79
2023/05/29 00:17:15;;;;;;;14.60;2.58;;;16.10;79.60;;;;;;5074407;28;20021;-78
2023/05/29 00:19:41;;;;;;;13.15;2.42;;;16.00;79.80;;;;;;5073080;28;20078;-78
2023/05/29 00:22:07;;;;;;;18.00;2.97;;;16.00;79.80;;;;;;5056564;28;20083;-78
2023/05/29 00:24:32;;;;;;;14.02;2.75;;;15.90;79.60;;;;;;5056377;28;20428;-78
2023/05/29 00:26:58;;;;;;;12.43;2.70;;;15.90;79.90;;;;;;5056558;28;20059;-78
2023/05/29 00:29:24;;;;;;;12.65;2.40;;;15.80;79.80;;;;;;5056705;28;20480;-78
2023/05/29 00:31:53;;;;;;;13.23;2.10;;;15.80;79.60;;;;;;5072552;28;20040;-78
2023/05/29 00:34:25;;;;;;;10.73;2.53;;;15.80;79.90;;;;;;5056720;28;20350;-78
2023/05/29 00:36:50;;;;;;;11.90;1.97;;;15.90;79.40;;;;;;5055819;28;20028;-78
2023/05/29 00:39:16;;;;;;;17.30;2.40;;;15.80;78.90;;;;;;5056110;28;20266;-80
2023/05/29 00:41:42;;;;;;;11.40;2.22;;;15.80;79.20;;;;;;5072732;28;20370;-77
2023/05/29 00:44:07;;;;;;;11.23;2.20;;;15.60;79.30;;;;;;5073445;28;20063;-78
2023/05/29 00:46:34;;;;;;;13.40;1.90;;;15.60;79.40;;;;;;5073439;28;20079;-78
2023/05/29 00:49:00;;;;;;;14.57;2.65;;;15.70;79.40;;;;;;5074038;28;20032;-78
2023/05/29 00:51:28;;;;;;;10.95;1.90;;;15.80;79.00;;;;;;5073175;28;20039;-78
2023/05/29 00:53:54;;;;;;;15.88;2.22;;;15.80;78.60;;;;;;5056245;28;20029;-78
2023/05/29 00:56:21;;;;;;;14.82;2.20;;;15.70;77.90;;;;;;5073085;28;20043;-78
2023/05/29 00:58:49;;;;;;;11.23;2.25;;;15.50;78.10;;;;;;5072399;28;20093;-78
2023/05/29 01:01:17;;;;;;;13.52;2.17;;;15.40;78.70;;;;;;5073201;28;20024;-78
2023/05/29 01:03:43;;;;;;;9.18;1.88;;;15.40;78.50;;;;;;5072408;28;20063;-77
2023/05/29 01:06:10;;;;;;;9.20;1.50;;;15.40;78.80;;;;;;5055906;28;20044;-77
2023/05/29 01:08:36;;;;;;;11.20;1.98;;;15.50;78.30;;;;;;5055780;28;20036;-77
2023/05/29 01:11:14;;;;;;;11.65;1.75;;;15.50;77.90;;;;;;5055295;28;20491;-77
2023/05/29 01:13:44;;;;;;;10.52;2.00;;;15.40;77.80;;;;;;5073429;28;20048;-78
2023/05/29 01:16:26;;;;;;;10.73;2.10;;;15.40;78.30;;;;;;5055895;28;20036;-77
2023/05/29 01:19:08;;;;;;;14.05;2.45;;;15.30;78.00;;;;;;5056403;28;20338;-77
2023/05/29 01:22:00;;;;;;;13.85;2.72;;;15.30;78.30;;;;;;5073494;28;20016;-77
2023/05/29 01:24:31;;;;;;;14.93;2.00;;;15.20;78.10;;;;;;5056084;28;20033;-78
2023/05/29 01:27:03;;;;;;;13.35;1.80;;;15.20;78.50;;;;;;5073803;28;20029;-77
2023/05/29 01:29:32;;;;;;;12.98;2.30;;;15.30;78.40;;;;;;5073374;28;20032;-77
2023/05/29 01:31:58;;;;;;;15.77;2.10;;;15.30;78.40;;;;;;5055725;28;20033;-77
2023/05/29 01:34:24;;;;;;;15.40;2.15;;;15.30;78.20;;;;;;5055050;28;20025;-78
2023/05/29 01:36:50;;;;;;;13.48;2.15;;;15.10;78.40;;;;;;5073055;28;20554;-78
2023/05/29 01:39:16;;;;;;;15.70;2.65;;;15.30;78.90;;;;;;5055485;28;20036;-78
2023/05/29 01:41:44;;;;;;;13.27;2.42;;;15.20;78.60;;;;;;5073279;28;20033;-77
2023/05/29 01:44:12;;;;;;;12.18;2.05;;;15.20;78.50;;;;;;5073326;28;20082;-77
2023/05/29 01:46:38;;;;;;;14.40;2.40;;;15.10;79.00;;;;;;5038790;28;20123;-77
2023/05/29 01:49:05;;;;;;;17.45;2.40;;;15.10;79.60;;;;;;5073198;28;20029;-76
2023/05/29 01:51:31;;;;;;;11.93;1.85;;;15.10;79.10;;;;;;5039149;28;20032;-77
2023/05/29 01:53:58;;;;;;;15.57;2.08;;;14.80;79.40;;;;;;5038708;28;20065;-78
2023/05/29 01:56:26;;;;;;;11.18;2.00;;;14.80;80.10;;;;;;5055912;28;20029;-78
2023/05/29 01:58:54;;;;;;;8.55;1.70;;;14.80;80.20;;;;;;5055764;28;20079;-78
2023/05/29 02:01:21;;;;;;;13.73;2.10;;;15.00;80.20;;;;;;5055741;28;20091;-78
2023/05/29 02:03:47;;;;;;;13.38;1.90;;;15.10;80.00;;;;;;5072857;28;20025;-78
2023/05/29 02:06:12;;;;;;;11.10;1.75;;;15.10;79.60;;;;;;5055108;28;20071;-77
2023/05/29 02:08:38;;;;;;;16.08;2.97;;;15.20;79.40;;;;;;5038155;28;20090;-78
2023/05/29 02:11:03;;;;;;;12.60;2.60;;;15.30;79.50;;;;;;5056043;28;20033;-77
2023/05/29 02:13:29;;;;;;;9.48;1.70;;;15.30;79.10;;;;;;5059609;28;20060;-77
2023/05/29 02:15:55;;;;;;;16.85;2.33;;;15.30;79.80;;;;;;5058507;28;20530;-78
2023/05/29 02:18:21;;;;;;;13.23;2.35;;;15.30;79.40;;;;;;5074863;28;20032;-78
2023/05/29 02:20:46;;;;;;;11.20;2.15;;;15.30;79.00;;;;;;5075230;28;20028;-78
2023/05/29 02:23:12;;;;;;;11.35;1.83;;;15.30;79.30;;;;;;5076209;28;20032;-78
2023/05/29 02:25:38;;;;;;;13.90;2.53;;;15.40;79.40;;;;;;5078656;28;20024;-78
2023/05/29 02:28:04;;;;;;;17.15;2.80;;;15.40;79.20;;;;;;5061599;28;20028;-78
2023/05/29 02:30:30;;;;;;;13.52;2.40;;;15.50;78.80;;;;;;5078188;28;20483;-77
2023/05/29 02:32:56;;;;;;;9.88;1.80;;;15.30;78.90;;;;;;5061640;28;20032;-78
2023/05/29 02:35:22;;;;;;;13.40;2.22;;;15.30;79.50;;;;;;5096287;28;20090;-78
2023/05/29 02:37:51;;;;;;;15.30;1.95;;;15.20;79.00;;;;;;5078023;28;20040;-78
2023/05/29 02:40:18;;;;;;;16.13;2.50;;;15.10;79.60;;;;;;5096739;28;20034;-78
2023/05/29 02:42:44;;;;;;;9.73;1.85;;;15.10;80.00;;;;;;5078523;28;20070;-78
2023/05/29 02:45:10;;;;;;;14.00;2.60;;;15.10;79.80;;;;;;5061596;28;20032;-78
2023/05/29 02:47:36;;;;;;;14.77;2.60;;;15.10;80.00;;;;;;5061744;28;20039;-77
2023/05/29 02:50:02;;;;;;;15.52;2.08;;;15.20;79.80;;;;;;5061706;28;20028;-78
2023/05/29 02:52:30;;;;;;;15.40;1.92;;;15.10;79.40;;;;;;5061562;28;20380;-78
2023/05/29 02:54:55;;;;;;;16.13;2.58;;;15.10;79.70;;;;;;5078717;28;20342;-78
2023/05/29 02:57:22;;;;;;;10.95;1.50;;;14.90;80.20;;;;;;5061403;28;20078;-79
2023/05/29 02:59:47;;;;;;;11.23;1.95;;;14.80;81.10;;;;;;5061341;28;20090;-78
2023/05/29 03:02:13;;;;;;;12.70;1.83;;;15.00;80.60;;;;;;5078169;28;20028;-77
2023/05/29 03:04:39;;;;;;;8.43;1.40;;;15.10;80.10;;;;;;5095887;28;20583;-78
2023/05/29 03:07:06;;;;;;;14.30;2.28;;;15.20;80.40;;;;;;5077935;28;20028;-78
2023/05/29 03:09:32;;;;;;;15.18;2.17;;;15.30;79.90;;;;;;5061219;28;20032;-78
2023/05/29 03:11:58;;;;;;;14.65;2.65;;;15.30;79.60;;;;;;5077937;28;20032;-78
2023/05/29 03:14:23;;;;;;;13.60;2.50;;;15.30;78.90;;;;;;5077263;28;20055;-78
2023/05/29 03:16:50;;;;;;;13.45;2.03;;;15.20;79.20;;;;;;5078177;28;20081;-77
2023/05/29 03:19:16;;;;;;;21.00;3.10;;;15.10;79.60;;;;;;5060709;28;20174;-78
2023/05/29 03:21:41;;;;;;;24.15;3.35;;;14.90;79.80;;;;;;5060826;28;20119;-77
2023/05/29 03:24:07;;;;;;;12.05;2.40;;;14.60;80.60;;;;;;5060909;28;20064;-77
2023/05/29 03:26:33;;;;;;;12.95;2.15;;;14.40;81.40;;;;;;5060740;28;20529;-78
2023/05/29 03:28:58;;;;;;;16.75;2.33;;;14.40;81.70;;;;;;5078064;28;20469;-78
2023/05/29 03:31:24;;;;;;;14.63;2.55;;;14.30;81.80;;;;;;5077351;28;20032;-77
2023/05/29 03:33:50;;;;;;;17.02;2.40;;;14.20;82.10;;;;;;5061203;28;20063;-78
2023/05/29 03:36:19;;;;;;;19.13;2.40;;;14.10;82.30;;;;;;5076892;28;20459;-78
2023/05/29 03:38:44;;;;;;;13.98;2.35;;;14.10;82.80;;;;;;5077910;28;20028;-78
2023/05/29 03:41:10;;;;;;;17.95;2.70;;;13.90;83.10;;;;;;5077356;28;20102;-78
2023/05/29 03:43:36;;;;;;;11.60;1.95;;;14.00;83.20;;;;;;5077220;28;20427;-77
2023/05/29 03:46:02;;;;;;;17.08;2.60;;;14.10;83.10;;;;;;5077250;28;20032;-77
2023/05/29 03:48:27;;;;;;;10.77;2.00;;;14.30;82.90;;;;;;5077042;28;20035;-77
2023/05/29 03:50:53;;;;;;;18.25;2.50;;;14.30;82.20;;;;;;5076571;28;20097;-77
2023/05/29 03:53:19;;;;;;;12.48;2.95;;;14.40;82.30;;;;;;5076998;28;20032;-77
2023/05/29 03:55:44;;;;;;;10.10;1.70;;;14.40;81.70;;;;;;5076773;28;20020;-77
2023/05/29 03:58:12;;;;;;;13.75;2.50;;;14.40;82.00;;;;;;5077091;28;20544;-77
2023/05/29 04:00:38;;;;;;;17.92;2.55;;;14.60;81.80;;;;;;5077104;28;20360;-77
2023/05/29 04:03:04;;;;;;;10.38;1.85;;;14.50;80.90;;;;;;5095504;28;20024;-77
2023/05/29 04:05:30;;;;;;;12.68;2.10;;;14.40;81.40;;;;;;5095184;28;20039;-77
2023/05/29 04:07:56;;;;;;;12.23;1.67;;;14.40;82.10;;;;;;5059961;28;20032;-77
2023/05/29 04:10:23;;;;;;;15.85;2.10;;;14.50;82.00;;;;;;5076499;28;20035;-77
2023/05/29 04:12:49;;;;;;;19.80;2.70;;;14.60;81.40;;;;;;5094665;28;20111;-77
2023/05/29 04:15:15;;;;;;;12.18;2.10;;;14.70;80.90;;;;;;5075053;28;20137;-77
2023/05/29 04:17:40;;;;;;;18.88;2.65;;;14.70;81.60;;;;;;5056791;28;20036;-77
2023/05/29 04:20:08;;;;;;;10.32;2.20;;;14.70;80.40;;;;;;5039843;28;20078;-77
2023/05/29 04:22:38;;;;;;;16.02;2.00;;;14.40;80.80;;;;;;5056982;28;20389;-77
2023/05/29 04:25:06;;;;;;;15.65;2.42;;;14.40;81.30;;;;;;5074747;28;20107;-77
2023/05/29 04:27:32;;;;;;;12.43;1.95;;;14.50;81.60;;;;;;5039727;28;20063;-77
2023/05/29 04:29:58;;;;;;;15.68;3.10;;;14.60;81.30;;;;;;5039761;28;20067;-77
2023/05/29 04:32:24;;;;;;;16.88;3.00;;;14.70;80.50;;;;;;5039718;28;20036;-77
2023/05/29 04:34:51;;;;;;;11.20;2.63;;;14.50;80.30;;;;;;5056167;28;20039;-77
2023/05/29 04:37:17;;;;;;;14.50;2.47;;;14.40;81.30;;;;;;5056288;28;20039;-78
2023/05/29 04:39:43;;;;;;;15.68;2.83;;;14.40;80.90;;;;;;5039568;28;20033;-77
2023/05/29 04:42:09;;;;;;;17.92;2.45;;;14.30;81.10;;;;;;5039642;28;20032;-77
2023/05/29 04:44:34;;;;;;;11.07;2.00;;;14.20;81.50;;;;;;5073947;28;20025;-77
2023/05/29 04:47:03;;;;;;;10.27;2.05;;;14.10;81.80;;;;;;5039536;28;20036;-77
2023/05/29 04:49:29;;;;;;;13.30;2.20;;;14.10;82.10;;;;;;5039657;28;20037;-77
2023/05/29 04:51:54;;;;;;;12.02;2.03;;;14.30;82.40;;;;;;5055589;28;20034;-77
2023/05/29 04:54:22;;;;;;;10.00;1.70;;;14.40;81.80;;;;;;5056010;28;20031;-79
2023/05/29 04:56:47;;;;;;;16.17;2.40;;;14.50;82.40;;;;;;5073506;28;20035;-77
2023/05/29 04:59:13;;;;;;;11.80;2.08;;;14.70;81.40;;;;;;5055767;28;20032;-77
2023/05/29 05:01:39;;;;;;;13.68;2.33;;;14.70;80.90;;;;;;5039268;28;20461;-78
2023/05/29 05:04:05;;;;;;;9.10;1.95;;;14.80;80.60;;;;;;5073755;28;20078;-77
2023/05/29 05:06:31;;;;;;;9.52;2.08;;;14.60;80.30;;;;;;5039180;28;20029;-77
2023/05/29 05:08:57;;;;;;;14.77;2.20;;;14.60;80.70;;;;;;5038770;28;20043;-77
2023/05/29 05:11:23;;;;;;;17.83;3.40;;;14.60;80.70;;;;;;5039139;28;20028;-78
2023/05/29 05:13:49;;;;;;;15.68;2.00;;;14.50;80.30;;;;;;5081505;28;20098;-77
2023/05/29 05:16:16;;;;;;;13.82;2.40;;;14.40;80.80;;;;;;5075976;28;20376;-77
2023/05/29 05:18:44;;;;;;;13.00;2.35;;;14.20;81.10;;;;;;5075955;28;20132;-77
2023/05/29 05:21:10;;;;;;;13.77;2.22;;;14.20;81.60;;;;;;5075562;28;20118;-77
2023/05/29 05:23:36;;;;;;;18.60;2.53;;;14.20;81.60;;;;;;5075781;28;20067;-77
2023/05/29 05:26:01;;;;;;;14.68;2.35;;;14.10;81.20;;;;;;5075823;28;20035;-77
2023/05/29 05:28:27;;;;;;;15.35;1.95;;;14.00;81.70;;;;;;5075924;28;20036;-78
2023/05/29 05:30:53;;;;;;;11.23;1.40;;;14.00;82.00;;;;;;5075627;28;20034;-77
2023/05/29 05:33:18;;;;;;;12.20;1.70;;;14.00;82.00;;;;;;5058866;28;20614;-77
2023/05/29 05:35:44;;;;;;;16.25;2.40;;;14.20;82.10;;;;;;5075902;28;20460;-77
2023/05/29 05:38:10;;;;;;;14.40;2.47;;;14.20;81.00;;;;;;5058530;28;20029;-77
2023/05/29 05:40:36;;;;;;;17.08;2.58;;;14.20;81.20;;;;;;5093305;28;20039;-77
2023/05/29 05:43:01;;;;;;;16.27;1.73;;;14.20;80.30;;;;;;5075138;28;20031;-77
2023/05/29 05:45:27;;;;;;;14.77;2.40;;;14.10;80.80;;;;;;5059361;28;20385;-77
2023/05/29 05:47:53;;;;;;;15.90;2.22;;;14.10;81.10;;;;;;5075636;28;20437;-77
2023/05/29 05:50:18;;;;;;;15.77;2.50;;;14.00;81.30;;;;;;5075815;28;20032;-77
2023/05/29 05:52:45;;;;;;;18.67;3.25;;;13.90;80.80;;;;;;5093497;28;20024;-77
2023/05/29 05:55:11;;;;;;;17.63;2.38;;;13.90;81.70;;;;;;5058725;28;20086;-77
2023/05/29 05:57:36;;;;;;;16.55;2.72;;;13.60;81.90;;;;;;5059079;28;20024;-77
2023/05/29 06:00:12;;;;;;;16.85;2.40;;;13.60;82.50;;;;;;5097617;28;20467;-77
2023/05/29 06:02:41;;;;;;;16.60;2.50;;;13.70;82.80;;;;;;5081110;28;20452;-77
2023/05/29 06:05:07;;;;;;;14.23;2.40;;;13.90;81.70;;;;;;5078970;28;20522;-77
2023/05/29 06:07:33;;;;;;;18.92;2.25;;;13.80;81.70;;;;;;5079322;28;20036;-77
2023/05/29 06:09:58;;;;;;;18.25;3.05;;;13.80;81.40;;;;;;5078842;28;20028;-78
2023/05/29 06:12:24;;;;;;;16.70;2.55;;;13.80;81.90;;;;;;5078674;28;20056;-78
2023/05/29 06:14:50;;;;;;;14.15;2.17;;;13.90;81.10;;;;;;5059932;28;20059;-77
2023/05/29 06:17:16;;;;;;;17.60;2.83;;;13.90;81.30;;;;;;5062806;28;20124;-77
2023/05/29 06:19:41;;;;;;;17.05;2.50;;;14.00;81.00;;;;;;5078926;28;20028;-77
2023/05/29 06:22:07;;;;;;;14.10;2.55;;;14.10;80.60;;;;;;5062167;28;20031;-77
2023/05/29 06:24:33;;;;;;;18.92;2.20;;;14.20;80.90;;;;;;5062623;28;20036;-77
2023/05/29 06:26:58;;;;;;;14.13;2.53;;;14.20;79.70;;;;;;5096847;28;20031;-78
2023/05/29 06:29:24;;;;;;;11.85;1.50;;;14.30;79.70;;;;;;5096711;28;20520;-78
2023/05/29 06:31:50;;;;;;;13.50;2.60;;;14.40;80.10;;;;;;5079000;28;20063;-77
2023/05/29 06:34:15;;;;;;;13.63;2.08;;;14.60;79.50;;;;;;5078498;28;20031;-77
2023/05/29 06:36:41;;;;;;;15.02;1.92;;;14.60;78.80;;;;;;5061920;28;20036;-77
2023/05/29 06:39:07;;;;;;;11.82;2.17;;;14.60;78.80;;;;;;5079001;28;20032;-78
2023/05/29 06:41:33;;;;;;;19.00;2.58;;;14.50;78.40;;;;;;5078771;28;20109;-77
2023/05/29 06:43:59;;;;;;;18.17;2.10;;;14.60;79.00;;;;;;5061290;28;20124;-77
2023/05/29 06:46:24;;;;;;;16.92;2.30;;;14.70;79.10;;;;;;5061884;28;20135;-77
2023/05/29 06:48:50;;;;;;;15.98;2.15;;;14.70;78.50;;;;;;5078210;28;20535;-77
2023/05/29 06:51:17;;;;;;;15.48;2.45;;;14.70;78.20;;;;;;5061261;28;20396;-77
2023/05/29 06:53:43;;;;;;;17.52;2.53;;;14.80;78.60;;;;;;5078546;28;20380;-77
2023/05/29 06:56:08;;;;;;;15.35;2.17;;;14.80;78.20;;;;;;5078080;28;20032;-77
2023/05/29 06:58:34;;;;;;;12.93;2.20;;;14.80;78.00;;;;;;5095937;28;20107;-78
2023/05/29 07:01:00;;;;;;;15.40;2.10;;;14.80;77.80;;;;;;5078235;28;20115;-77
2023/05/29 07:03:27;;;;;;;15.38;1.83;;;14.90;78.20;;;;;;5061153;28;20189;-78
2023/05/29 07:05:52;;;;;;;10.80;1.40;;;15.00;77.80;;;;;;5077933;28;20468;-79
2023/05/29 07:08:19;;;;;;;9.52;1.73;;;15.10;77.50;;;;;;5077731;28;20114;-78
2023/05/29 07:10:45;;;;;;;13.25;1.77;;;15.10;77.20;;;;;;5059850;28;20039;-78
2023/05/29 07:13:14;;;;;;;12.55;2.20;;;15.10;76.40;;;;;;5095395;28;20028;-78
2023/05/29 07:15:40;;;;;;;13.90;1.98;;;15.20;76.70;;;;;;5096201;28;20031;-78
2023/05/29 07:18:06;;;;;;;12.95;2.05;;;15.20;76.20;;;;;;5077664;28;20024;-78
2023/05/29 07:20:31;;;;;;;12.48;2.30;;;15.10;76.20;;;;;;5060579;28;20028;-78
2023/05/29 07:22:57;;;;;;;19.20;2.85;;;15.00;76.80;;;;;;5060786;28;20024;-78
2023/05/29 07:25:23;;;;;;;11.32;1.90;;;15.00;76.50;;;;;;5077480;28;20028;-78
2023/05/29 07:27:48;;;;;;;11.75;1.85;;;15.10;75.50;;;;;;5060861;28;20191;-78
2023/05/29 07:30:15;;;;;;;9.43;1.00;;;15.20;76.30;;;;;;5095325;28;20024;-78
2023/05/29 07:32:40;;;;;;;11.25;1.65;;;15.30;76.10;;;;;;5096194;28;20036;-78
2023/05/29 07:35:06;;;;;;;12.90;1.58;;;15.50;75.10;;;;;;5077265;28;20024;-77
2023/05/29 07:37:32;;;;;;;15.07;2.03;;;15.60;75.50;;;;;;5077856;28;20086;-78
2023/05/29 07:39:58;;;;;;;12.63;1.80;;;15.60;74.40;;;;;;5060688;28;20435;-77
2023/05/29 07:42:24;;;;;;;15.20;1.80;;;15.70;74.70;;;;;;5077616;28;20522;-78
2023/05/29 07:44:49;;;;;;;14.43;1.90;;;15.60;74.60;;;;;;5077284;28;20032;-78
2023/05/29 07:47:15;;;;;;;13.55;2.10;;;15.80;74.50;;;;;;5077106;28;20077;-78
2023/05/29 07:49:41;;;;;;;12.95;2.10;;;15.80;75.30;;;;;;5077133;28;20102;-78
2023/05/29 07:52:07;;;;;;;11.98;2.13;;;15.90;75.30;;;;;;5077052;28;20369;-76
2023/05/29 07:54:33;;;;;;;9.48;1.70;;;16.10;74.50;;;;;;5060166;28;20035;-78
2023/05/29 07:57:09;;;;;;;14.10;2.15;;;16.20;73.20;;;;;;5095124;28;20028;-78
2023/05/29 07:59:35;;;;;;;9.20;1.65;;;16.30;73.30;;;;;;5061796;28;20110;-78
2023/05/29 08:02:03;;;;;;;17.83;2.17;;;16.30;73.60;;;;;;5076756;28;20032;-78
2023/05/29 08:04:28;;;;;;;13.18;2.28;;;16.40;73.00;;;;;;5076713;28;20039;-78
2023/05/29 08:06:54;;;;;;;15.38;2.30;;;16.50;73.60;;;;;;5077136;28;20024;-79
2023/05/29 08:09:20;;;;;;;10.07;1.80;;;16.50;73.00;;;;;;5076911;28;20036;-78
2023/05/29 08:11:47;;;;;;;9.10;2.00;;;16.60;73.70;;;;;;5076782;28;20487;-78
2023/05/29 08:14:14;;;;;;;10.27;1.98;;;16.60;73.70;;;;;;5076304;28;20055;-77
2023/05/29 08:16:40;;;;;;;13.07;2.15;;;16.70;73.80;;;;;;5076579;28;20051;-78
2023/05/29 08:19:05;;;;;;;11.63;1.75;;;16.70;72.50;;;;;;5094928;28;20225;-78
2023/05/29 08:21:31;;;;;;;8.70;2.47;;;16.70;72.60;;;;;;5059359;28;20138;-78
2023/05/29 08:24:00;;;;;;;11.75;1.80;;;16.80;73.30;;;;;;5094912;28;20027;-78
2023/05/29 08:26:26;;;;;;;10.48;2.03;;;17.00;72.60;;;;;;5059717;28;20028;-78
2023/05/29 08:28:52;;;;;;;13.73;2.35;;;17.00;72.10;;;;;;5076236;28;20035;-79
2023/05/29 08:31:17;;;;;;;12.38;1.67;;;17.00;71.40;;;;;;5076327;28;20120;-78
2023/05/29 08:33:43;;;;;;;16.55;2.35;;;17.10;71.50;;;;;;5077291;28;20357;-78
2023/05/29 08:36:09;;;;;;;10.60;1.75;;;17.00;70.90;;;;;;5059578;28;20452;-76
2023/05/29 08:38:35;;;;;;;13.05;1.88;;;16.90;71.70;;;;;;5076471;28;20377;-77
2023/05/29 08:41:02;;;;;;;11.23;2.10;;;16.90;72.10;;;;;;5059692;28;20465;-78
2023/05/29 08:43:32;;;;;;;13.82;2.35;;;17.10;72.10;;;;;;5076466;28;20024;-77
2023/05/29 08:46:02;;;;;;;10.20;1.67;;;17.10;72.00;;;;;;5076699;28;20024;-77
2023/05/29 08:48:30;;;;;;;12.13;2.10;;;17.20;71.90;;;;;;5094291;28;20039;-77
2023/05/29 08:50:57;;;;;;;9.10;1.77;;;17.30;70.50;;;;;;5059486;28;20032;-78
2023/05/29 08:53:24;;;;;;;11.80;1.80;;;17.30;70.60;;;;;;5076202;28;20077;-78
2023/05/29 08:55:51;;;;;;;12.45;2.03;;;17.40;70.70;;;;;;5076210;28;20028;-77
2023/05/29 08:58:18;;;;;;;10.52;1.75;;;17.60;71.00;;;;;;5094050;28;20161;-77
2023/05/29 09:00:48;;;;;;;10.60;1.95;;;17.70;70.30;;;;;;5075928;28;20028;-77
2023/05/29 09:03:14;;;;;;;9.10;1.55;;;17.80;70.10;;;;;;5075998;28;20027;-77
2023/05/29 09:05:41;;;;;;;11.27;1.70;;;18.00;70.00;;;;;;5076606;28;20117;-77
2023/05/29 09:08:09;;;;;;;7.22;1.42;;;18.00;68.40;;;;;;5094135;28;20031;-77
2023/05/29 09:10:35;;;;;;;13.75;1.80;;;18.00;69.50;;;;;;5093954;28;20028;-77
2023/05/29 09:13:02;;;;;;;12.40;2.17;;;18.00;69.30;;;;;;5059066;28;20131;-77
2023/05/29 09:15:28;;;;;;;12.02;2.25;;;18.00;68.80;;;;;;5058754;28;20511;-78
2023/05/29 09:17:56;;;;;;;11.00;2.00;;;17.90;68.30;;;;;;5075338;28;20036;-78
2023/05/29 09:20:24;;;;;;;9.85;1.90;;;17.80;68.90;;;;;;5076251;28;20361;-78
2023/05/29 09:23:06;;;;;;;9.60;1.92;;;17.80;69.20;;;;;;5076949;28;20123;-77
2023/05/29 09:25:34;;;;;;;12.52;2.15;;;18.10;69.70;;;;;;5060817;28;20117;-77
2023/05/29 09:28:04;;;;;;;12.95;2.20;;;18.20;70.80;;;;;;5075760;28;20040;-77
2023/05/29 09:30:38;;;;;;;10.38;2.00;;;18.10;68.80;;;;;;5076184;28;20116;-76
2023/05/29 09:33:08;;;;;;;10.88;1.73;;;18.00;69.70;;;;;;5077561;28;20024;-76
2023/05/29 09:35:35;;;;;;;10.75;1.60;;;18.10;70.00;;;;;;5063547;28;20483;-77
2023/05/29 09:38:01;;;;;;;11.13;1.50;;;18.40;69.20;;;;;;5080475;28;20035;-77
2023/05/29 09:40:31;;;;;;;6.22;1.60;;;18.60;69.30;;;;;;5097335;28;20460;-78
2023/05/29 09:43:11;;;;;;;9.05;1.55;;;18.80;67.80;;;;;;5079513;28;20380;-78
2023/05/29 09:45:41;;;;;;;11.23;2.20;;;18.80;67.80;;;;;;5097484;28;20043;-78
2023/05/29 09:48:18;;;;;;;10.82;2.47;;;18.90;67.40;;;;;;5097248;28;20468;-78
2023/05/29 09:50:47;;;;;;;8.40;1.55;;;18.80;67.40;;;;;;5079399;28;20464;-76
2023/05/29 09:53:24;;;;;;;9.82;1.85;;;18.80;68.50;;;;;;5097814;28;20077;-77
2023/05/29 09:55:51;;;;;;;8.80;1.58;;;18.90;67.70;;;;;;5098039;28;20062;-77
2023/05/29 09:58:25;;;;;;;10.43;1.80;;;19.00;68.30;;;;;;5079381;28;20059;-77
2023/05/29 10:00:52;;;;;;;10.13;1.88;;;19.20;68.70;;;;;;5079351;28;20052;-77
2023/05/29 10:03:19;;;;;;;7.82;1.65;;;19.30;67.10;;;;;;5062673;28;20028;-77
2023/05/29 10:05:50;;;;;;;9.02;1.70;;;19.40;66.80;;;;;;5079920;28;20020;-77
2023/05/29 10:08:18;;;;;;;11.15;2.05;;;19.20;67.70;;;;;;5062871;28;20346;-77
2023/05/29 10:10:59;;;;;;;9.18;2.00;;;19.00;66.50;;;;;;5079435;28;20032;-77
2023/05/29 10:13:31;;;;;;;8.10;1.80;;;18.80;66.50;;;;;;5078760;28;20054;-78
2023/05/29 10:15:58;;;;;;;8.73;2.05;;;18.80;67.50;;;;;;5079131;28;20035;-78
2023/05/29 10:18:30;;;;;;;9.18;2.00;;;18.80;67.40;;;;;;5078902;28;20531;-78
2023/05/29 10:20:58;;;;;;;13.30;1.90;;;18.80;67.60;;;;;;5096770;28;20082;-78
2023/05/29 10:23:26;;;;;;;6.25;1.58;;;18.90;67.80;;;;;;5097118;28;20043;-78
2023/05/29 10:25:56;;;;;;;7.55;1.58;;;19.10;68.10;;;;;;5079166;28;20020;-77
2023/05/29 10:28:26;;;;;;;8.57;2.30;;;19.30;67.50;;;;;;5078843;28;20170;-77
2023/05/29 10:31:01;;;;;;;12.02;2.10;;;19.50;66.80;;;;;;5079068;28;20043;-77
2023/05/29 10:33:27;;;;;;;8.68;2.28;;;19.80;64.30;;;;;;5078847;28;20534;-77
2023/05/29 10:36:18;;;;;;;9.13;1.65;;;19.60;63.20;;;;;;5096771;28;20024;-78
2023/05/29 10:38:48;;;;;;;10.15;1.85;;;19.50;64.30;;;;;;5089241;28;20361;-77
2023/05/29 10:41:28;;;;;;;11.07;2.08;;;19.70;65.00;;;;;;5061902;28;20032;-77
2023/05/29 10:43:58;;;;;;;10.25;1.85;;;19.80;62.60;;;;;;5077891;28;20116;-78
2023/05/29 10:46:42;;;;;;;12.93;2.47;;;19.80;63.50;;;;;;5079324;28;20107;-77
2023/05/29 10:49:18;;;;;;;8.88;2.00;;;19.80;63.00;;;;;;5078155;28;20035;-77
2023/05/29 10:51:44;;;;;;;7.35;1.63;;;19.90;63.20;;;;;;5096258;28;20028;-75
2023/05/29 10:54:11;;;;;;;11.93;2.30;;;20.10;63.10;;;;;;5061459;28;20166;-77
2023/05/29 10:56:36;;;;;;;8.98;2.00;;;20.10;60.00;;;;;;5078112;28;20028;-76
2023/05/29 10:59:03;;;;;;;6.75;1.65;;;19.80;60.90;;;;;;5096247;28;20031;-76
2023/05/29 11:01:30;;;;;;;9.52;2.10;;;19.60;62.10;;;;;;5078164;28;20479;-76
2023/05/29 11:04:16;;;;;;;10.23;1.90;;;19.50;61.50;;;;;;5078200;28;20032;-77
2023/05/29 11:06:42;;;;;;;6.75;1.83;;;19.50;61.00;;;;;;5077966;28;20030;-78
2023/05/29 11:09:30;;;;;;;8.00;2.00;;;19.50;62.10;;;;;;5061981;28;20032;-76
2023/05/29 11:12:32;;;;;;;9.98;2.20;;;19.50;62.60;;;;;;5078752;28;20024;-77
2023/05/29 11:15:13;;;;;;;8.77;2.25;;;19.60;62.50;;;;;;5080225;28;20040;-76
2023/05/29 11:17:39;;;;;;;11.13;2.58;;;19.50;62.10;;;;;;5058606;28;20465;-76
2023/05/29 11:20:07;;;;;;;7.82;1.65;;;19.50;61.70;;;;;;5057756;28;20112;-76
2023/05/29 11:22:51;;;;;;;11.93;2.08;;;19.60;62.50;;;;;;5057619;28;20032;-76
2023/05/29 11:25:17;;;;;;;9.77;1.58;;;19.60;61.70;;;;;;5057829;28;20024;-78
2023/05/29 11:27:44;;;;;;;9.82;1.75;;;19.70;62.10;;;;;;5041294;28;20036;-78
2023/05/29 11:30:10;;;;;;;8.48;1.60;;;19.80;62.00;;;;;;5057792;28;20033;-77
2023/05/29 11:32:36;;;;;;;10.10;2.00;;;19.90;60.80;;;;;;5075404;28;20031;-77
2023/05/29 11:35:10;;;;;;;9.93;2.28;;;20.00;62.10;;;;;;5057451;28;20469;-78
2023/05/29 11:37:39;;;;;;;9.52;1.80;;;20.10;61.90;;;;;;5075597;28;20029;-78
2023/05/29 11:40:09;;;;;;;13.35;2.00;;;20.20;60.80;;;;;;5075619;28;20024;-78
2023/05/29 11:42:36;;;;;;;10.50;2.78;;;20.30;61.40;;;;;;5041174;28;20028;-77
2023/05/29 11:45:34;;;;;;;7.78;1.80;;;20.30;59.60;;;;;;5040417;28;20439;-77
2023/05/29 11:48:03;;;;;;;9.90;2.20;;;20.40;60.30;;;;;;5041344;28;20460;-77
2023/05/29 11:50:33;;;;;;;12.88;1.83;;;20.30;59.80;;;;;;5057049;28;20120;-78
2023/05/29 11:53:00;;;;;;;12.23;2.08;;;20.30;59.80;;;;;;5057398;28;20055;-78
2023/05/29 11:55:27;;;;;;;9.63;2.20;;;20.40;60.50;;;;;;5056153;28;20032;-78
2023/05/29 11:58:00;;;;;;;11.27;2.05;;;20.50;59.80;;;;;;5056940;28;20064;-76
2023/05/29 12:00:30;;;;;;;9.95;1.73;;;20.60;58.80;;;;;;5056666;28;20473;-76
2023/05/29 12:02:58;;;;;;;11.13;2.33;;;20.40;57.90;;;;;;5057455;28;20030;-77
2023/05/29 12:05:24;;;;;;;12.95;2.40;;;20.30;59.00;;;;;;5040060;28;20066;-77
2023/05/29 12:07:56;;;;;;;9.82;1.98;;;20.30;60.00;;;;;;5075259;28;20036;-76
2023/05/29 12:10:22;;;;;;;13.00;2.20;;;20.40;60.10;;;;;;5057475;28;20369;-78
2023/05/29 12:12:59;;;;;;;8.77;1.95;;;20.50;57.80;;;;;;5074571;28;20254;-77
2023/05/29 12:15:25;;;;;;;8.55;1.80;;;20.30;58.70;;;;;;5075842;28;20052;-79
2023/05/29 12:17:52;;;;;;;11.43;2.78;;;20.50;59.50;;;;;;5076192;28;20437;-78
2023/05/29 12:20:20;;;;;;;10.45;2.40;;;20.60;59.10;;;;;;5076833;28;20094;-78
2023/05/29 12:22:46;;;;;;;10.55;2.78;;;20.40;58.10;;;;;;5059816;28;20028;-78
2023/05/29 12:25:16;;;;;;;8.93;1.85;;;20.50;58.30;;;;;;5059866;28;20484;-78
2023/05/29 12:27:46;;;;;;;15.02;3.35;;;20.60;59.60;;;;;;5076087;28;20039;-78
2023/05/29 12:30:22;;;;;;;16.65;2.50;;;20.80;59.10;;;;;;5077003;28;20354;-77
2023/05/29 12:32:49;;;;;;;10.73;2.92;;;20.80;58.20;;;;;;5060301;28;20028;-78
2023/05/29 12:35:28;;;;;;;8.98;2.00;;;20.70;57.20;;;;;;5059682;28;20122;-78
2023/05/29 12:38:08;;;;;;;11.07;2.00;;;20.60;56.60;;;;;;5059775;28;20028;-78
2023/05/29 12:40:36;;;;;;;9.63;1.90;;;20.50;56.50;;;;;;5076718;28;20135;-77